sensor_id;sensor_type;location;lat;lon;timestamp;temperature;humidity
22379;DHT22;11357;49.990;7.370;2022-07-15T00:02:23;18.30;57.50
22379;DHT22;11357;49.990;7.370;2022-07-15T00:04:49;18.30;57.50
22379;DHT22;11357;49.990;7.370;2022-07-15T00:07:14;18.30;57.50
22379;DHT22;11357;49.990;7.370;2022-07-15T00:09:40;18.30;57.40
22379;DHT22;11357;49.990;7.370;2022-07-15T00:12:24;18.30;57.40
22379;DHT22;11357;49.990;7.370;2022-07-15T00:14:50;18.30;57.30
22379;DHT22;11357;49.990;7.370;2022-07-15T00:17:16;18.30;57.30
22379;DHT22;11357;49.990;7.370;2022-07-15T00:19:42;18.30;57.30
22379;DHT22;11357;49.990;7.370;2022-07-15T00:22:09;18.30;57.30
22379;DHT22;11357;49.990;7.370;2022-07-15T00:24:34;18.30;57.20
22379;DHT22;11357;49.990;7.370;2022-07-15T00:27:00;18.20;57.30
22379;DHT22;11357;49.990;7.370;2022-07-15T00:29:28;18.20;57.30
22379;DHT22;11357;49.990;7.370;2022-07-15T00:31:54;18.10;57.30
22379;DHT22;11357;49.990;7.370;2022-07-15T00:34:20;18.10;57.40
22379;DHT22;11357;49.990;7.370;2022-07-15T00:36:46;18.00;57.50
22379;DHT22;11357;49.990;7.370;2022-07-15T00:39:13;18.00;57.60
22379;DHT22;11357;49.990;7.370;2022-07-15T00:41:40;18.00;57.70
22379;DHT22;11357;49.990;7.370;2022-07-15T00:44:06;17.90;57.80
22379;DHT22;11357;49.990;7.370;2022-07-15T00:46:32;17.80;57.90
22379;DHT22;11357;49.990;7.370;2022-07-15T00:48:58;17.80;58.00
22379;DHT22;11357;49.990;7.370;2022-07-15T00:51:25;17.80;58.00
22379;DHT22;11357;49.990;7.370;2022-07-15T00:53:52;17.70;58.10
22379;DHT22;11357;49.990;7.370;2022-07-15T00:56:21;17.70;58.30
22379;DHT22;11357;49.990;7.370;2022-07-15T00:58:49;17.60;58.30
22379;DHT22;11357;49.990;7.370;2022-07-15T01:01:19;17.60;58.40
22379;DHT22;11357;49.990;7.370;2022-07-15T01:03:47;17.50;58.40
22379;DHT22;11357;49.990;7.370;2022-07-15T01:06:13;17.50;58.50
22379;DHT22;11357;49.990;7.370;2022-07-15T01:08:39;17.50;58.40
22379;DHT22;11357;49.990;7.370;2022-07-15T01:11:05;17.40;58.50
22379;DHT22;11357;49.990;7.370;2022-07-15T01:13:31;17.30;58.70
22379;DHT22;11357;49.990;7.370;2022-07-15T01:15:57;17.30;58.70
22379;DHT22;11357;49.990;7.370;2022-07-15T01:18:23;17.20;58.80
22379;DHT22;11357;49.990;7.370;2022-07-15T01:20:48;17.20;58.80
22379;DHT22;11357;49.990;7.370;2022-07-15T01:23:15;17.20;58.80
22379;DHT22;11357;49.990;7.370;2022-07-15T01:25:41;17.10;58.80
22379;DHT22;11357;49.990;7.370;2022-07-15T01:28:08;17.00;58.80
22379;DHT22;11357;49.990;7.370;2022-07-15T01:30:34;17.00;59.00
22379;DHT22;11357;49.990;7.370;2022-07-15T01:33:01;16.90;59.20
22379;DHT22;11357;49.990;7.370;2022-07-15T01:35:27;16.80;59.40
22379;DHT22;11357;49.990;7.370;2022-07-15T01:37:54;16.80;59.60
22379;DHT22;11357;49.990;7.370;2022-07-15T01:40:19;16.80;59.60
22379;DHT22;11357;49.990;7.370;2022-07-15T01:42:45;16.80;59.60
22379;DHT22;11357;49.990;7.370;2022-07-15T01:45:11;16.80;59.60
22379;DHT22;11357;49.990;7.370;2022-07-15T01:47:44;16.80;59.60
22379;DHT22;11357;49.990;7.370;2022-07-15T01:50:10;16.80;59.70
22379;DHT22;11357;49.990;7.370;2022-07-15T01:52:36;16.80;59.70
22379;DHT22;11357;49.990;7.370;2022-07-15T01:55:03;16.80;59.60
22379;DHT22;11357;49.990;7.370;2022-07-15T01:57:29;16.80;59.70
22379;DHT22;11357;49.990;7.370;2022-07-15T01:59:55;16.80;59.80
22379;DHT22;11357;49.990;7.370;2022-07-15T02:02:20;16.80;59.90
22379;DHT22;11357;49.990;7.370;2022-07-15T02:04:46;16.80;60.10
22379;DHT22;11357;49.990;7.370;2022-07-15T02:07:12;16.80;60.20
22379;DHT22;11357;49.990;7.370;2022-07-15T02:09:37;16.80;60.40
22379;DHT22;11357;49.990;7.370;2022-07-15T02:12:03;16.70;60.40
22379;DHT22;11357;49.990;7.370;2022-07-15T02:14:29;16.70;60.60
22379;DHT22;11357;49.990;7.370;2022-07-15T02:16:55;16.60;60.70
22379;DHT22;11357;49.990;7.370;2022-07-15T02:19:21;16.60;60.80
22379;DHT22;11357;49.990;7.370;2022-07-15T02:21:47;16.50;60.80
22379;DHT22;11357;49.990;7.370;2022-07-15T02:24:13;16.50;60.90
22379;DHT22;11357;49.990;7.370;2022-07-15T02:26:39;16.40;61.10
22379;DHT22;11357;49.990;7.370;2022-07-15T02:29:06;16.40;61.10
22379;DHT22;11357;49.990;7.370;2022-07-15T02:31:32;16.40;61.20
22379;DHT22;11357;49.990;7.370;2022-07-15T02:33:58;16.40;61.30
22379;DHT22;11357;49.990;7.370;2022-07-15T02:36:24;16.40;61.50
22379;DHT22;11357;49.990;7.370;2022-07-15T02:38:50;16.40;61.60
22379;DHT22;11357;49.990;7.370;2022-07-15T02:41:15;16.30;61.60
22379;DHT22;11357;49.990;7.370;2022-07-15T02:43:41;16.20;61.90
22379;DHT22;11357;49.990;7.370;2022-07-15T02:46:08;16.10;62.10
22379;DHT22;11357;49.990;7.370;2022-07-15T02:48:35;16.10;62.40
22379;DHT22;11357;49.990;7.370;2022-07-15T02:51:01;16.00;62.60
22379;DHT22;11357;49.990;7.370;2022-07-15T02:53:27;16.00;62.70
22379;DHT22;11357;49.990;7.370;2022-07-15T02:55:55;16.00;62.80
22379;DHT22;11357;49.990;7.370;2022-07-15T02:58:21;16.00;62.70
22379;DHT22;11357;49.990;7.370;2022-07-15T03:00:48;16.10;62.60
22379;DHT22;11357;49.990;7.370;2022-07-15T03:03:13;16.10;62.60
22379;DHT22;11357;49.990;7.370;2022-07-15T03:05:39;16.10;62.60
22379;DHT22;11357;49.990;7.370;2022-07-15T03:08:05;16.10;62.70
22379;DHT22;11357;49.990;7.370;2022-07-15T03:10:31;16.00;62.70
22379;DHT22;11357;49.990;7.370;2022-07-15T03:12:57;16.10;62.80
22379;DHT22;11357;49.990;7.370;2022-07-15T03:15:22;16.10;62.80
22379;DHT22;11357;49.990;7.370;2022-07-15T03:17:48;16.00;62.90
22379;DHT22;11357;49.990;7.370;2022-07-15T03:20:14;16.00;62.90
22379;DHT22;11357;49.990;7.370;2022-07-15T03:22:40;15.90;62.90
22379;DHT22;11357;49.990;7.370;2022-07-15T03:25:06;15.90;63.00
22379;DHT22;11357;49.990;7.370;2022-07-15T03:27:32;15.80;63.20
22379;DHT22;11357;49.990;7.370;2022-07-15T03:29:59;15.80;63.30
22379;DHT22;11357;49.990;7.370;2022-07-15T03:32:25;15.80;63.50
22379;DHT22;11357;49.990;7.370;2022-07-15T03:34:51;15.80;63.70
22379;DHT22;11357;49.990;7.370;2022-07-15T03:37:17;15.80;63.90
22379;DHT22;11357;49.990;7.370;2022-07-15T03:39:44;15.70;63.90
22379;DHT22;11357;49.990;7.370;2022-07-15T03:42:10;15.70;64.00
22379;DHT22;11357;49.990;7.370;2022-07-15T03:44:35;15.70;64.10
22379;DHT22;11357;49.990;7.370;2022-07-15T03:47:01;15.60;64.10
22379;DHT22;11357;49.990;7.370;2022-07-15T03:49:27;15.60;64.10
22379;DHT22;11357;49.990;7.370;2022-07-15T03:51:53;15.60;64.10
22379;DHT22;11357;49.990;7.370;2022-07-15T03:54:19;15.60;64.20
22379;DHT22;11357;49.990;7.370;2022-07-15T03:56:44;15.60;64.20
22379;DHT22;11357;49.990;7.370;2022-07-15T03:59:17;15.50;64.30
22379;DHT22;11357;49.990;7.370;2022-07-15T04:01:43;15.40;64.40
22379;DHT22;11357;49.990;7.370;2022-07-15T04:04:09;15.40;64.60
22379;DHT22;11357;49.990;7.370;2022-07-15T04:06:35;15.40;64.60
22379;DHT22;11357;49.990;7.370;2022-07-15T04:09:01;15.40;64.80
22379;DHT22;11357;49.990;7.370;2022-07-15T04:11:27;15.40;65.00
22379;DHT22;11357;49.990;7.370;2022-07-15T04:13:53;15.40;65.10
22379;DHT22;11357;49.990;7.370;2022-07-15T04:16:19;15.40;65.10
22379;DHT22;11357;49.990;7.370;2022-07-15T04:18:44;15.30;65.10
22379;DHT22;11357;49.990;7.370;2022-07-15T04:21:10;15.40;65.30
22379;DHT22;11357;49.990;7.370;2022-07-15T04:23:36;15.30;65.60
22379;DHT22;11357;49.990;7.370;2022-07-15T04:26:02;15.30;65.80
22379;DHT22;11357;49.990;7.370;2022-07-15T04:28:28;15.30;66.00
22379;DHT22;11357;49.990;7.370;2022-07-15T04:30:54;15.30;66.10
22379;DHT22;11357;49.990;7.370;2022-07-15T04:33:20;15.40;66.30
22379;DHT22;11357;49.990;7.370;2022-07-15T04:35:46;15.40;66.60
22379;DHT22;11357;49.990;7.370;2022-07-15T04:38:12;15.50;66.90
22379;DHT22;11357;49.990;7.370;2022-07-15T04:40:38;15.50;67.40
22379;DHT22;11357;49.990;7.370;2022-07-15T04:43:06;15.60;67.50
22379;DHT22;11357;49.990;7.370;2022-07-15T04:45:33;15.70;67.60
22379;DHT22;11357;49.990;7.370;2022-07-15T04:47:59;15.90;67.60
22379;DHT22;11357;49.990;7.370;2022-07-15T04:50:24;16.00;67.50
22379;DHT22;11357;49.990;7.370;2022-07-15T04:53:08;16.10;67.40
22379;DHT22;11357;49.990;7.370;2022-07-15T04:55:34;16.20;67.20
22379;DHT22;11357;49.990;7.370;2022-07-15T04:58:00;16.30;67.40
22379;DHT22;11357;49.990;7.370;2022-07-15T05:00:26;16.30;67.60
22379;DHT22;11357;49.990;7.370;2022-07-15T05:02:53;16.40;67.80
22379;DHT22;11357;49.990;7.370;2022-07-15T05:05:18;16.60;67.80
22379;DHT22;11357;49.990;7.370;2022-07-15T05:07:44;16.70;67.60
22379;DHT22;11357;49.990;7.370;2022-07-15T05:10:11;16.80;67.70
22379;DHT22;11357;49.990;7.370;2022-07-15T05:12:37;16.90;67.90
22379;DHT22;11357;49.990;7.370;2022-07-15T05:15:03;17.10;67.90
22379;DHT22;11357;49.990;7.370;2022-07-15T05:17:29;17.30;67.70
22379;DHT22;11357;49.990;7.370;2022-07-15T05:19:55;17.50;67.50
22379;DHT22;11357;49.990;7.370;2022-07-15T05:22:22;17.70;67.40
22379;DHT22;11357;49.990;7.370;2022-07-15T05:24:48;17.80;67.20
22379;DHT22;11357;49.990;7.370;2022-07-15T05:27:14;18.00;66.90
22379;DHT22;11357;49.990;7.370;2022-07-15T05:29:40;18.10;66.70
22379;DHT22;11357;49.990;7.370;2022-07-15T05:32:05;18.20;66.50
22379;DHT22;11357;49.990;7.370;2022-07-15T05:34:32;18.20;66.50
22379;DHT22;11357;49.990;7.370;2022-07-15T05:36:57;18.20;66.40
22379;DHT22;11357;49.990;7.370;2022-07-15T05:39:24;18.20;66.50
22379;DHT22;11357;49.990;7.370;2022-07-15T05:41:49;18.10;66.70
22379;DHT22;11357;49.990;7.370;2022-07-15T05:44:15;18.20;66.90
22379;DHT22;11357;49.990;7.370;2022-07-15T05:46:41;18.20;66.80
22379;DHT22;11357;49.990;7.370;2022-07-15T05:49:06;18.30;66.80
22379;DHT22;11357;49.990;7.370;2022-07-15T05:51:32;18.30;66.90
22379;DHT22;11357;49.990;7.370;2022-07-15T05:53:59;18.30;66.90
22379;DHT22;11357;49.990;7.370;2022-07-15T05:56:25;18.30;66.90
22379;DHT22;11357;49.990;7.370;2022-07-15T05:58:51;18.30;66.80
22379;DHT22;11357;49.990;7.370;2022-07-15T06:01:16;18.40;66.90
22379;DHT22;11357;49.990;7.370;2022-07-15T06:03:42;18.40;66.70
22379;DHT22;11357;49.990;7.370;2022-07-15T06:08:36;18.50;66.50
22379;DHT22;11357;49.990;7.370;2022-07-15T06:11:02;18.70;66.30
22379;DHT22;11357;49.990;7.370;2022-07-15T06:13:27;18.90;66.00
22379;DHT22;11357;49.990;7.370;2022-07-15T06:15:53;19.10;65.40
22379;DHT22;11357;49.990;7.370;2022-07-15T06:18:19;19.30;65.00
22379;DHT22;11357;49.990;7.370;2022-07-15T06:20:45;19.50;65.20
22379;DHT22;11357;49.990;7.370;2022-07-15T06:23:11;19.70;63.90
22379;DHT22;11357;49.990;7.370;2022-07-15T06:25:37;19.80;63.40
22379;DHT22;11357;49.990;7.370;2022-07-15T06:28:02;19.90;63.10
22379;DHT22;11357;49.990;7.370;2022-07-15T06:30:29;20.00;62.80
22379;DHT22;11357;49.990;7.370;2022-07-15T06:32:54;20.20;62.40
22379;DHT22;11357;49.990;7.370;2022-07-15T06:35:20;20.10;62.00
22379;DHT22;11357;49.990;7.370;2022-07-15T06:37:46;20.00;62.00
22379;DHT22;11357;49.990;7.370;2022-07-15T06:40:12;20.00;62.20
22379;DHT22;11357;49.990;7.370;2022-07-15T06:42:38;20.00;62.30
22379;DHT22;11357;49.990;7.370;2022-07-15T06:45:05;20.10;62.20
22379;DHT22;11357;49.990;7.370;2022-07-15T06:47:31;20.10;61.90
22379;DHT22;11357;49.990;7.370;2022-07-15T06:49:57;20.10;62.00
22379;DHT22;11357;49.990;7.370;2022-07-15T06:52:23;20.00;62.00
22379;DHT22;11357;49.990;7.370;2022-07-15T06:54:48;20.00;62.20
22379;DHT22;11357;49.990;7.370;2022-07-15T06:57:14;20.00;62.30
22379;DHT22;11357;49.990;7.370;2022-07-15T06:59:43;20.00;62.40
22379;DHT22;11357;49.990;7.370;2022-07-15T07:02:08;20.10;62.30
22379;DHT22;11357;49.990;7.370;2022-07-15T07:04:34;20.30;62.00
22379;DHT22;11357;49.990;7.370;2022-07-15T07:07:00;20.50;61.60
22379;DHT22;11357;49.990;7.370;2022-07-15T07:09:26;20.70;60.90
22379;DHT22;11357;49.990;7.370;2022-07-15T07:11:52;20.80;60.50
22379;DHT22;11357;49.990;7.370;2022-07-15T07:14:18;20.90;60.10
22379;DHT22;11357;49.990;7.370;2022-07-15T07:16:44;20.90;59.90
22379;DHT22;11357;49.990;7.370;2022-07-15T07:19:11;20.90;59.90
22379;DHT22;11357;49.990;7.370;2022-07-15T07:21:39;21.00;59.50
22379;DHT22;11357;49.990;7.370;2022-07-15T07:24:05;21.20;59.20
22379;DHT22;11357;49.990;7.370;2022-07-15T07:26:33;21.20;58.80
22379;DHT22;11357;49.990;7.370;2022-07-15T07:28:59;21.30;58.40
22379;DHT22;11357;49.990;7.370;2022-07-15T07:31:25;21.30;58.10
22379;DHT22;11357;49.990;7.370;2022-07-15T07:33:56;21.20;58.20
22379;DHT22;11357;49.990;7.370;2022-07-15T07:36:23;21.40;58.20
22379;DHT22;11357;49.990;7.370;2022-07-15T07:38:49;21.60;57.60
22379;DHT22;11357;49.990;7.370;2022-07-15T07:41:14;21.70;57.10
22379;DHT22;11357;49.990;7.370;2022-07-15T07:43:40;21.80;57.00
22379;DHT22;11357;49.990;7.370;2022-07-15T07:46:06;21.90;56.20
22379;DHT22;11357;49.990;7.370;2022-07-15T07:48:32;22.00;56.10
22379;DHT22;11357;49.990;7.370;2022-07-15T07:50:58;22.00;55.90
22379;DHT22;11357;49.990;7.370;2022-07-15T07:53:24;22.10;55.60
22379;DHT22;11357;49.990;7.370;2022-07-15T07:55:50;22.20;55.10
22379;DHT22;11357;49.990;7.370;2022-07-15T07:58:16;22.40;55.10
22379;DHT22;11357;49.990;7.370;2022-07-15T08:00:43;22.40;54.60
22379;DHT22;11357;49.990;7.370;2022-07-15T08:03:09;22.30;54.40
22379;DHT22;11357;49.990;7.370;2022-07-15T08:05:35;22.40;54.80
22379;DHT22;11357;49.990;7.370;2022-07-15T08:08:15;22.50;54.70
22379;DHT22;11357;49.990;7.370;2022-07-15T08:10:43;22.60;54.50
22379;DHT22;11357;49.990;7.370;2022-07-15T08:13:09;22.80;54.70
22379;DHT22;11357;49.990;7.370;2022-07-15T08:15:35;22.90;53.10
22379;DHT22;11357;49.990;7.370;2022-07-15T08:18:01;23.10;52.40
22379;DHT22;11357;49.990;7.370;2022-07-15T08:20:28;23.40;51.70
22379;DHT22;11357;49.990;7.370;2022-07-15T08:22:54;23.60;50.70
22379;DHT22;11357;49.990;7.370;2022-07-15T08:25:31;23.80;50.60
22379;DHT22;11357;49.990;7.370;2022-07-15T08:27:58;23.90;49.80
22379;DHT22;11357;49.990;7.370;2022-07-15T08:30:26;24.00;48.80
22379;DHT22;11357;49.990;7.370;2022-07-15T08:32:52;24.20;47.80
22379;DHT22;11357;49.990;7.370;2022-07-15T08:35:18;24.40;47.50
22379;DHT22;11357;49.990;7.370;2022-07-15T08:37:43;24.50;46.70
22379;DHT22;11357;49.990;7.370;2022-07-15T08:40:10;24.50;46.80
22379;DHT22;11357;49.990;7.370;2022-07-15T08:42:37;24.60;46.60
22379;DHT22;11357;49.990;7.370;2022-07-15T08:45:06;24.90;46.30
22379;DHT22;11357;49.990;7.370;2022-07-15T08:47:32;25.00;44.70
22379;DHT22;11357;49.990;7.370;2022-07-15T08:49:58;25.50;44.40
22379;DHT22;11357;49.990;7.370;2022-07-15T08:52:25;25.90;44.20
22379;DHT22;11357;49.990;7.370;2022-07-15T08:54:52;25.90;44.00
22379;DHT22;11357;49.990;7.370;2022-07-15T08:57:18;25.50;44.10
22379;DHT22;11357;49.990;7.370;2022-07-15T08:59:44;25.00;44.30
22379;DHT22;11357;49.990;7.370;2022-07-15T09:02:18;24.40;45.40
22379;DHT22;11357;49.990;7.370;2022-07-15T09:08:14;24.30;46.00
22379;DHT22;11357;49.990;7.370;2022-07-15T09:13:07;25.30;43.30
22379;DHT22;11357;49.990;7.370;2022-07-15T09:15:35;25.80;42.60
22379;DHT22;11357;49.990;7.370;2022-07-15T09:18:14;26.30;41.70
22379;DHT22;11357;49.990;7.370;2022-07-15T09:20:40;26.50;41.20
22379;DHT22;11357;49.990;7.370;2022-07-15T09:23:08;26.60;40.90
22379;DHT22;11357;49.990;7.370;2022-07-15T09:25:36;26.50;40.00
22379;DHT22;11357;49.990;7.370;2022-07-15T09:28:05;26.00;40.70
22379;DHT22;11357;49.990;7.370;2022-07-15T09:30:37;25.40;41.50
22379;DHT22;11357;49.990;7.370;2022-07-15T09:33:24;25.30;42.10
22379;DHT22;11357;49.990;7.370;2022-07-15T09:36:11;25.50;41.60
22379;DHT22;11357;49.990;7.370;2022-07-15T09:41:30;25.30;41.60
22379;DHT22;11357;49.990;7.370;2022-07-15T09:46:42;24.30;42.30
22379;DHT22;11357;49.990;7.370;2022-07-15T09:49:09;24.20;43.00
22379;DHT22;11357;49.990;7.370;2022-07-15T09:54:33;25.40;42.20
22379;DHT22;11357;49.990;7.370;2022-07-15T09:57:01;26.20;40.90
22379;DHT22;11357;49.990;7.370;2022-07-15T09:59:28;27.20;40.20
22379;DHT22;11357;49.990;7.370;2022-07-15T10:01:55;28.40;38.90
22379;DHT22;11357;49.990;7.370;2022-07-15T10:04:23;28.90;37.30
22379;DHT22;11357;49.990;7.370;2022-07-15T10:06:51;28.60;35.90
22379;DHT22;11357;49.990;7.370;2022-07-15T10:09:30;27.90;36.10
22379;DHT22;11357;49.990;7.370;2022-07-15T10:12:08;27.10;37.00
22379;DHT22;11357;49.990;7.370;2022-07-15T10:28:50;27.30;38.00
22379;DHT22;11357;49.990;7.370;2022-07-15T10:31:23;28.20;37.10
22379;DHT22;11357;49.990;7.370;2022-07-15T10:39:14;29.50;34.20
22379;DHT22;11357;49.990;7.370;2022-07-15T10:41:56;29.90;33.50
22379;DHT22;11357;49.990;7.370;2022-07-15T10:44:23;30.10;32.00
22379;DHT22;11357;49.990;7.370;2022-07-15T10:49:37;30.80;31.40
22379;DHT22;11357;49.990;7.370;2022-07-15T10:52:27;30.90;30.70
22379;DHT22;11357;49.990;7.370;2022-07-15T11:00:32;29.30;32.20
22379;DHT22;11357;49.990;7.370;2022-07-15T11:03:11;29.80;32.50
22379;DHT22;11357;49.990;7.370;2022-07-15T11:13:43;28.00;33.40
22379;DHT22;11357;49.990;7.370;2022-07-15T11:16:14;27.60;34.30
22379;DHT22;11357;49.990;7.370;2022-07-15T11:18:58;27.30;35.20
22379;DHT22;11357;49.990;7.370;2022-07-15T11:21:24;27.00;36.00
22379;DHT22;11357;49.990;7.370;2022-07-15T11:23:51;26.60;36.10
22379;DHT22;11357;49.990;7.370;2022-07-15T11:26:19;26.10;36.10
22379;DHT22;11357;49.990;7.370;2022-07-15T11:28:50;25.80;37.00
22379;DHT22;11357;49.990;7.370;2022-07-15T11:31:16;25.90;37.70
22379;DHT22;11357;49.990;7.370;2022-07-15T11:33:41;26.60;37.10
22379;DHT22;11357;49.990;7.370;2022-07-15T11:36:17;27.30;35.60
22379;DHT22;11357;49.990;7.370;2022-07-15T11:38:43;27.80;35.00
22379;DHT22;11357;49.990;7.370;2022-07-15T11:41:09;28.60;34.30
22379;DHT22;11357;49.990;7.370;2022-07-15T11:44:04;29.20;33.80
22379;DHT22;11357;49.990;7.370;2022-07-15T11:46:49;29.70;32.80
22379;DHT22;11357;49.990;7.370;2022-07-15T11:49:35;29.30;32.20
22379;DHT22;11357;49.990;7.370;2022-07-15T11:52:22;28.60;32.50
22379;DHT22;11357;49.990;7.370;2022-07-15T11:54:48;27.80;32.40
22379;DHT22;11357;49.990;7.370;2022-07-15T11:57:14;27.20;34.70
22379;DHT22;11357;49.990;7.370;2022-07-15T11:59:40;26.70;35.30
22379;DHT22;11357;49.990;7.370;2022-07-15T12:02:11;26.70;35.60
22379;DHT22;11357;49.990;7.370;2022-07-15T12:04:39;26.90;35.80
22379;DHT22;11357;49.990;7.370;2022-07-15T12:07:05;27.20;35.50
22379;DHT22;11357;49.990;7.370;2022-07-15T12:09:46;27.70;35.00
22379;DHT22;11357;49.990;7.370;2022-07-15T12:12:12;28.00;34.30
22379;DHT22;11357;49.990;7.370;2022-07-15T12:14:38;28.40;33.80
22379;DHT22;11357;49.990;7.370;2022-07-15T12:17:04;28.90;33.30
22379;DHT22;11357;49.990;7.370;2022-07-15T12:19:32;29.40;32.70
22379;DHT22;11357;49.990;7.370;2022-07-15T12:22:03;29.90;31.70
22379;DHT22;11357;49.990;7.370;2022-07-15T12:24:46;29.90;30.80
22379;DHT22;11357;49.990;7.370;2022-07-15T12:27:16;29.30;31.00
22379;DHT22;11357;49.990;7.370;2022-07-15T12:29:42;28.70;31.80
22379;DHT22;11357;49.990;7.370;2022-07-15T12:32:10;28.30;32.60
22379;DHT22;11357;49.990;7.370;2022-07-15T12:37:23;28.00;32.60
22379;DHT22;11357;49.990;7.370;2022-07-15T12:40:08;28.20;32.80
22379;DHT22;11357;49.990;7.370;2022-07-15T12:42:45;28.80;32.50
22379;DHT22;11357;49.990;7.370;2022-07-15T12:45:39;29.60;31.50
22379;DHT22;11357;49.990;7.370;2022-07-15T12:48:10;30.40;31.80
22379;DHT22;11357;49.990;7.370;2022-07-15T12:53:17;32.30;29.60
22379;DHT22;11357;49.990;7.370;2022-07-15T12:55:45;32.30;28.50
22379;DHT22;11357;49.990;7.370;2022-07-15T12:58:14;31.90;28.40
22379;DHT22;11357;49.990;7.370;2022-07-15T13:00:42;31.60;28.60
22379;DHT22;11357;49.990;7.370;2022-07-15T13:03:20;31.70;28.60
22379;DHT22;11357;49.990;7.370;2022-07-15T13:05:48;31.70;28.40
22379;DHT22;11357;49.990;7.370;2022-07-15T13:08:15;32.10;28.60
22379;DHT22;11357;49.990;7.370;2022-07-15T13:10:44;32.80;28.20
22379;DHT22;11357;49.990;7.370;2022-07-15T13:13:11;33.10;27.70
22379;DHT22;11357;49.990;7.370;2022-07-15T13:15:41;32.90;27.20
22379;DHT22;11357;49.990;7.370;2022-07-15T13:18:07;32.80;27.40
22379;DHT22;11357;49.990;7.370;2022-07-15T13:20:33;32.60;27.30
22379;DHT22;11357;49.990;7.370;2022-07-15T13:22:59;32.20;27.40
22379;DHT22;11357;49.990;7.370;2022-07-15T13:25:25;31.90;27.40
22379;DHT22;11357;49.990;7.370;2022-07-15T13:27:52;31.70;27.80
22379;DHT22;11357;49.990;7.370;2022-07-15T13:30:18;31.80;27.90
22379;DHT22;11357;49.990;7.370;2022-07-15T13:32:44;31.70;27.70
22379;DHT22;11357;49.990;7.370;2022-07-15T13:35:11;31.30;27.90
22379;DHT22;11357;49.990;7.370;2022-07-15T13:37:37;31.10;28.30
22379;DHT22;11357;49.990;7.370;2022-07-15T13:40:04;31.00;28.50
22379;DHT22;11357;49.990;7.370;2022-07-15T13:42:31;30.50;28.20
22379;DHT22;11357;49.990;7.370;2022-07-15T13:44:56;30.00;28.80
22379;DHT22;11357;49.990;7.370;2022-07-15T13:47:23;29.70;29.10
22379;DHT22;11357;49.990;7.370;2022-07-15T13:49:49;29.50;29.20
22379;DHT22;11357;49.990;7.370;2022-07-15T13:52:33;29.50;29.40
22379;DHT22;11357;49.990;7.370;2022-07-15T13:54:59;29.70;29.40
22379;DHT22;11357;49.990;7.370;2022-07-15T13:57:25;29.70;29.00
22379;DHT22;11357;49.990;7.370;2022-07-15T13:59:51;29.50;29.00
22379;DHT22;11357;49.990;7.370;2022-07-15T14:02:16;29.30;29.00
22379;DHT22;11357;49.990;7.370;2022-07-15T14:04:42;29.10;29.50
22379;DHT22;11357;49.990;7.370;2022-07-15T14:07:08;28.90;29.60
22379;DHT22;11357;49.990;7.370;2022-07-15T14:09:34;28.80;29.70
22379;DHT22;11357;49.990;7.370;2022-07-15T14:12:00;28.30;29.80
22379;DHT22;11357;49.990;7.370;2022-07-15T14:14:26;28.00;30.20
22379;DHT22;11357;49.990;7.370;2022-07-15T14:16:52;28.00;30.60
22379;DHT22;11357;49.990;7.370;2022-07-15T14:19:18;28.20;30.80
22379;DHT22;11357;49.990;7.370;2022-07-15T14:21:44;28.40;30.70
22379;DHT22;11357;49.990;7.370;2022-07-15T14:24:10;28.50;30.40
22379;DHT22;11357;49.990;7.370;2022-07-15T14:26:36;28.50;30.30
22379;DHT22;11357;49.990;7.370;2022-07-15T14:29:02;28.50;30.30
22379;DHT22;11357;49.990;7.370;2022-07-15T14:31:28;28.60;30.30
22379;DHT22;11357;49.990;7.370;2022-07-15T14:33:54;28.60;30.10
22379;DHT22;11357;49.990;7.370;2022-07-15T14:36:20;28.80;30.10
22379;DHT22;11357;49.990;7.370;2022-07-15T14:38:45;28.90;30.40
22379;DHT22;11357;49.990;7.370;2022-07-15T14:41:11;28.70;29.90
22379;DHT22;11357;49.990;7.370;2022-07-15T14:43:37;28.40;29.90
22379;DHT22;11357;49.990;7.370;2022-07-15T14:46:02;28.20;30.00
22379;DHT22;11357;49.990;7.370;2022-07-15T14:48:28;28.20;30.00
22379;DHT22;11357;49.990;7.370;2022-07-15T14:50:54;28.00;30.00
22379;DHT22;11357;49.990;7.370;2022-07-15T14:53:20;27.90;30.10
22379;DHT22;11357;49.990;7.370;2022-07-15T14:55:46;27.70;30.40
22379;DHT22;11357;49.990;7.370;2022-07-15T14:58:13;27.80;30.40
22379;DHT22;11357;49.990;7.370;2022-07-15T15:00:40;27.70;30.60
22379;DHT22;11357;49.990;7.370;2022-07-15T15:03:06;27.60;30.50
22379;DHT22;11357;49.990;7.370;2022-07-15T15:05:32;27.60;30.60
22379;DHT22;11357;49.990;7.370;2022-07-15T15:07:58;27.50;30.80
22379;DHT22;11357;49.990;7.370;2022-07-15T15:10:23;27.50;30.90
22379;DHT22;11357;49.990;7.370;2022-07-15T15:12:49;27.40;31.10
22379;DHT22;11357;49.990;7.370;2022-07-15T15:15:15;27.30;31.20
22379;DHT22;11357;49.990;7.370;2022-07-15T15:17:41;27.30;31.20
22379;DHT22;11357;49.990;7.370;2022-07-15T15:20:07;27.20;31.00
22379;DHT22;11357;49.990;7.370;2022-07-15T15:22:34;27.20;31.00
22379;DHT22;11357;49.990;7.370;2022-07-15T15:25:00;27.10;30.90
22379;DHT22;11357;49.990;7.370;2022-07-15T15:27:26;27.00;31.00
22379;DHT22;11357;49.990;7.370;2022-07-15T15:29:52;27.00;31.00
22379;DHT22;11357;49.990;7.370;2022-07-15T15:32:18;26.90;30.90
22379;DHT22;11357;49.990;7.370;2022-07-15T15:34:44;26.90;30.90
22379;DHT22;11357;49.990;7.370;2022-07-15T15:37:10;26.90;31.10
22379;DHT22;11357;49.990;7.370;2022-07-15T15:39:36;27.00;30.90
22379;DHT22;11357;49.990;7.370;2022-07-15T15:42:04;27.00;31.10
22379;DHT22;11357;49.990;7.370;2022-07-15T15:44:30;27.00;31.00
22379;DHT22;11357;49.990;7.370;2022-07-15T15:46:56;26.80;31.00
22379;DHT22;11357;49.990;7.370;2022-07-15T15:49:21;26.80;31.10
22379;DHT22;11357;49.990;7.370;2022-07-15T15:51:47;26.90;31.10
22379;DHT22;11357;49.990;7.370;2022-07-15T15:54:13;26.90;30.90
22379;DHT22;11357;49.990;7.370;2022-07-15T15:56:39;26.70;30.90
22379;DHT22;11357;49.990;7.370;2022-07-15T15:59:05;26.50;31.10
22379;DHT22;11357;49.990;7.370;2022-07-15T16:01:32;26.50;31.20
22379;DHT22;11357;49.990;7.370;2022-07-15T16:03:58;26.40;31.10
22379;DHT22;11357;49.990;7.370;2022-07-15T16:06:24;26.30;31.30
22379;DHT22;11357;49.990;7.370;2022-07-15T16:08:53;26.30;31.30
22379;DHT22;11357;49.990;7.370;2022-07-15T16:11:20;26.10;31.40
22379;DHT22;11357;49.990;7.370;2022-07-15T16:13:50;26.10;31.70
22379;DHT22;11357;49.990;7.370;2022-07-15T16:16:17;26.10;32.10
22379;DHT22;11357;49.990;7.370;2022-07-15T16:18:43;26.30;32.10
22379;DHT22;11357;49.990;7.370;2022-07-15T16:21:09;26.40;31.80
22379;DHT22;11357;49.990;7.370;2022-07-15T16:23:34;26.40;31.50
22379;DHT22;11357;49.990;7.370;2022-07-15T16:26:00;26.40;31.40
22379;DHT22;11357;49.990;7.370;2022-07-15T16:28:26;26.40;31.50
22379;DHT22;11357;49.990;7.370;2022-07-15T16:30:52;26.40;31.50